KOVE/OVE METAR and TAF weather

Enter ICAO airport designator
Station Type Date Time Source
KOVE METAR 2020/07/11 03:53 UTC NOAA

KOVE 110353Z AUTO 00000KT 10SM CLR 31/12 A2990 RMK AO2 SLP124 T03110117


Station Type Date Time Source
KOVE Decoded METAR 2020/07/11 03:53 UTC NOAA

OROVILLE MUNICIPAL AIRPORT, CA, United States (KOVE) 39-30N 121-37W 58M
Jul 10, 2020 - 11:53 PM EDT / 2020.07.11 0353 UTC
Wind: Calm:0
Visibility: 10 mile(s):0
Sky conditions: clear
Temperature: 88.0 F (31.1 C)
Dew Point: 53.1 F (11.7 C)
Relative Humidity: 30%
Pressure (altimeter): 29.9 in. Hg (1012 hPa)
ob: KOVE 110353Z AUTO 00000KT 10SM CLR 31/12 A2990 RMK AO2 SLP124 T03110117
cycle: 4

Station Type Date Time Source
KOVE TAF UTC NOAA

Error!

Example: see airport list